Time;durP1;ratioP1;P1;durP2;ratioP2;P2;SDS_P1;SDS_P2;PMS_P1;PMS_P2;Temp;Humidity;BMP_temperature;BMP_pressure;BME280_temperature;BME280_humidity;BME280_pressure;Samples;Min_cycle;Max_cycle;Signal;HPM_P1;HPM_P2
2021/10/03 00:01:32;;;;;;;0.00;0.00;;;17.30;99.90;;;;;;5035944;28;20498;-74
2021/10/03 00:03:59;;;;;;;0.00;0.00;;;17.30;99.90;;;;;;5051024;28;20119;-75
2021/10/03 00:06:26;;;;;;;0.00;0.00;;;17.30;99.90;;;;;;5035664;28;20075;-76
2021/10/03 00:08:53;;;;;;;0.00;0.00;;;17.40;99.90;;;;;;5035644;28;20384;-75
2021/10/03 00:11:19;;;;;;;0.00;0.00;;;17.40;99.90;;;;;;5035554;28;20076;-75
2021/10/03 00:13:46;;;;;;;0.65;0.20;;;17.40;99.90;;;;;;5035639;28;20028;-74
2021/10/03 00:16:12;;;;;;;0.10;0.10;;;17.40;99.90;;;;;;5044572;28;20064;-74
2021/10/03 00:18:38;;;;;;;0.15;0.15;;;17.50;99.90;;;;;;5055365;28;20021;-75
2021/10/03 00:21:05;;;;;;;0.55;0.35;;;17.50;99.90;;;;;;5054624;28;20028;-75
2021/10/03 00:23:32;;;;;;;1.48;0.32;;;17.50;99.90;;;;;;5055259;28;20052;-75
2021/10/03 00:25:58;;;;;;;0.00;0.00;;;17.50;99.90;;;;;;5055020;28;20527;-75
2021/10/03 00:28:24;;;;;;;0.00;0.00;;;17.50;99.90;;;;;;5054784;28;20021;-75
2021/10/03 00:30:50;;;;;;;0.82;0.80;;;17.50;99.90;;;;;;5055267;28;20028;-75
2021/10/03 00:33:16;;;;;;;0.47;0.47;;;17.50;99.90;;;;;;5055032;28;20029;-75
2021/10/03 00:35:41;;;;;;;0.00;0.00;;;17.50;99.90;;;;;;5053728;28;20170;-75
2021/10/03 00:38:09;;;;;;;0.20;0.10;;;17.50;99.90;;;;;;5055029;28;20040;-75
2021/10/03 00:40:38;;;;;;;0.93;0.80;;;17.50;99.90;;;;;;5055013;28;20068;-75
2021/10/03 00:43:04;;;;;;;0.08;0.00;;;17.50;99.90;;;;;;5055039;28;20074;-77
2021/10/03 00:45:31;;;;;;;0.00;0.00;;;17.50;99.90;;;;;;5054755;28;20033;-75
2021/10/03 00:47:58;;;;;;;1.25;1.15;;;17.50;99.90;;;;;;5054860;28;20485;-75
2021/10/03 00:50:25;;;;;;;0.30;0.22;;;17.50;99.90;;;;;;5054945;28;20087;-74
2021/10/03 00:52:51;;;;;;;2.90;0.45;;;17.50;99.90;;;;;;5054818;28;20017;-75
2021/10/03 00:55:17;;;;;;;0.10;0.10;;;17.60;99.90;;;;;;5054549;28;20443;-75
2021/10/03 00:57:46;;;;;;;0.20;0.20;;;17.60;99.90;;;;;;5054791;28;20028;-74
2021/10/03 01:00:14;;;;;;;3.30;0.38;;;17.70;99.90;;;;;;5054457;28;20062;-75
2021/10/03 01:02:41;;;;;;;1.08;0.57;;;17.70;99.90;;;;;;5068299;28;20021;-74
2021/10/03 01:05:08;;;;;;;0.32;0.17;;;17.80;99.90;;;;;;5057892;28;20492;-75
2021/10/03 01:07:35;;;;;;;5.15;0.75;;;17.80;99.90;;;;;;5069501;28;20020;-75
2021/10/03 01:10:03;;;;;;;0.28;0.13;;;17.80;99.90;;;;;;5074100;28;20392;-75
2021/10/03 01:12:28;;;;;;;0.35;0.35;;;17.90;99.90;;;;;;5073616;28;20059;-75
2021/10/03 01:14:55;;;;;;;0.00;0.00;;;18.00;99.90;;;;;;5074270;28;20016;-75
2021/10/03 01:17:20;;;;;;;0.10;0.10;;;18.10;99.90;;;;;;5054326;28;20020;-74
2021/10/03 01:19:47;;;;;;;0.00;0.00;;;18.20;99.90;;;;;;5053243;28;20396;-74
2021/10/03 01:22:13;;;;;;;0.45;0.45;;;18.20;99.90;;;;;;5054045;28;20032;-75
2021/10/03 01:24:39;;;;;;;0.28;0.28;;;18.20;99.90;;;;;;5053943;28;20052;-75
2021/10/03 01:27:05;;;;;;;0.00;0.00;;;18.40;99.90;;;;;;5053915;28;20031;-75
2021/10/03 01:29:32;;;;;;;0.10;0.10;;;18.40;99.90;;;;;;5053556;28;20025;-75
2021/10/03 01:31:58;;;;;;;0.05;0.05;;;18.50;99.90;;;;;;5053834;28;20020;-75
2021/10/03 01:34:23;;;;;;;15.00;0.80;;;18.50;99.90;;;;;;5053889;28;20025;-74
2021/10/03 01:36:49;;;;;;;0.00;0.00;;;18.40;99.90;;;;;;5052836;28;20040;-74
2021/10/03 01:39:15;;;;;;;0.10;0.10;;;18.50;99.90;;;;;;5053516;28;20037;-74
2021/10/03 01:41:41;;;;;;;0.15;0.10;;;18.40;99.90;;;;;;5053860;28;20078;-74
2021/10/03 01:44:06;;;;;;;0.75;0.17;;;18.40;99.90;;;;;;5053599;28;20032;-74
2021/10/03 01:46:32;;;;;;;2.38;0.35;;;18.40;99.90;;;;;;5053492;28;20508;-75
2021/10/03 01:48:58;;;;;;;0.10;0.10;;;18.30;99.90;;;;;;5053809;28;20056;-75
2021/10/03 01:51:25;;;;;;;0.35;0.30;;;18.20;99.90;;;;;;5059026;28;20043;-74
2021/10/03 01:53:55;;;;;;;0.00;0.00;;;18.20;99.90;;;;;;5047549;28;20052;-74
2021/10/03 01:56:22;;;;;;;6.97;0.50;;;18.20;99.90;;;;;;5052523;28;20033;-75
2021/10/03 01:58:51;;;;;;;0.00;0.00;;;18.10;99.90;;;;;;5060308;28;20115;-74
2021/10/03 02:01:25;;;;;;;1.80;0.52;;;18.10;99.90;;;;;;5061282;28;20043;-75
2021/10/03 02:03:51;;;;;;;0.00;0.00;;;18.10;99.90;;;;;;5033530;28;20480;-74
2021/10/03 02:06:17;;;;;;;0.47;0.47;;;18.10;99.90;;;;;;5033036;28;20036;-74
2021/10/03 02:08:43;;;;;;;0.47;0.47;;;18.20;99.90;;;;;;5033598;28;20029;-74
2021/10/03 02:11:09;;;;;;;1.40;1.27;;;18.20;99.90;;;;;;5031823;28;20089;-74
2021/10/03 02:13:35;;;;;;;0.30;0.10;;;18.30;99.90;;;;;;5033287;28;20053;-74
2021/10/03 02:16:01;;;;;;;0.00;0.00;;;18.30;99.90;;;;;;5032841;28;20508;-75
2021/10/03 02:18:35;;;;;;;0.77;0.50;;;18.30;99.90;;;;;;5033215;28;20032;-74
2021/10/03 02:21:02;;;;;;;0.20;0.20;;;18.50;99.90;;;;;;5032243;28;20052;-74
2021/10/03 02:23:29;;;;;;;5.25;3.42;;;18.50;99.90;;;;;;5033268;28;20049;-75
2021/10/03 02:25:55;;;;;;;5.93;1.65;;;18.40;99.90;;;;;;5032906;28;20022;-74
2021/10/03 02:28:22;;;;;;;0.00;0.00;;;18.40;99.90;;;;;;5033039;28;20397;-76
2021/10/03 02:30:50;;;;;;;0.38;0.38;;;18.50;99.90;;;;;;5033071;28;20025;-74
2021/10/03 02:33:16;;;;;;;0.00;0.00;;;18.60;99.90;;;;;;5032936;28;20056;-75
2021/10/03 02:35:42;;;;;;;0.43;0.43;;;17.90;99.90;;;;;;5033095;28;20049;-75
2021/10/03 02:38:11;;;;;;;0.30;0.30;;;16.90;99.90;;;;;;5032803;28;20034;-74
2021/10/03 02:40:37;;;;;;;0.00;0.00;;;16.40;99.90;;;;;;5031982;28;20033;-75
2021/10/03 02:43:05;;;;;;;1.35;1.25;;;16.20;99.90;;;;;;5031412;28;20029;-75
2021/10/03 02:45:34;;;;;;;0.17;0.17;;;16.10;99.90;;;;;;5032792;28;20083;-75
2021/10/03 02:48:00;;;;;;;0.10;0.10;;;16.10;99.90;;;;;;5031486;28;20025;-75
2021/10/03 02:50:26;;;;;;;0.22;0.22;;;16.00;99.90;;;;;;5031698;28;20029;-74
2021/10/03 02:52:52;;;;;;;0.65;0.65;;;16.00;99.90;;;;;;5032921;28;20044;-74
2021/10/03 02:55:18;;;;;;;16.90;3.80;;;16.00;99.90;;;;;;5032543;28;20021;-76
2021/10/03 02:57:43;;;;;;;0.10;0.10;;;16.00;99.90;;;;;;5032630;28;20022;-74
2021/10/03 03:00:10;;;;;;;0.00;0.00;;;16.00;99.90;;;;;;5032501;28;20040;-75
2021/10/03 03:02:37;;;;;;;17.80;1.02;;;16.10;99.90;;;;;;5032498;28;20025;-75
2021/10/03 03:05:05;;;;;;;0.22;0.22;;;16.10;99.90;;;;;;5032666;28;20116;-74
2021/10/03 03:07:31;;;;;;;0.38;0.38;;;16.10;99.90;;;;;;5031078;28;20025;-74
2021/10/03 03:09:57;;;;;;;0.13;0.13;;;16.20;99.90;;;;;;5030198;28;20374;-74
2021/10/03 03:12:23;;;;;;;0.00;0.00;;;16.20;99.90;;;;;;5032385;28;20144;-74
2021/10/03 03:14:48;;;;;;;0.25;0.25;;;16.20;99.90;;;;;;5032440;28;20026;-75
2021/10/03 03:17:17;;;;;;;0.00;0.00;;;16.30;99.90;;;;;;5032144;28;20026;-74
2021/10/03 03:19:44;;;;;;;0.00;0.00;;;16.30;99.90;;;;;;5032289;28;20025;-75
2021/10/03 03:22:10;;;;;;;0.95;0.80;;;16.30;99.90;;;;;;5031682;28;20104;-75
2021/10/03 03:24:36;;;;;;;1.55;1.15;;;16.30;99.90;;;;;;5032179;28;20059;-75
2021/10/03 03:27:02;;;;;;;0.05;0.05;;;16.30;99.90;;;;;;5032315;28;20026;-74
2021/10/03 03:29:28;;;;;;;0.00;0.00;;;16.30;99.90;;;;;;5032407;28;20080;-74
2021/10/03 03:31:55;;;;;;;0.00;0.00;;;16.30;99.90;;;;;;5032475;28;20427;-74
2021/10/03 03:34:22;;;;;;;1.23;0.80;;;16.40;99.90;;;;;;5032333;28;20411;-74
2021/10/03 03:36:48;;;;;;;0.38;0.38;;;16.30;99.90;;;;;;5032201;28;20064;-74
2021/10/03 03:39:13;;;;;;;0.10;0.10;;;16.40;99.90;;;;;;5031081;28;20475;-74
2021/10/03 03:41:39;;;;;;;1.08;0.98;;;16.40;99.90;;;;;;5032105;28;20026;-75
2021/10/03 03:44:05;;;;;;;0.00;0.00;;;16.40;99.90;;;;;;5032092;28;20036;-74
2021/10/03 03:46:31;;;;;;;0.00;0.00;;;16.50;99.90;;;;;;5031911;28;20029;-74
2021/10/03 03:48:56;;;;;;;0.00;0.00;;;16.50;99.90;;;;;;5032255;28;20037;-75
2021/10/03 03:51:22;;;;;;;0.15;0.15;;;16.40;99.90;;;;;;5032978;28;20030;-74
2021/10/03 03:53:48;;;;;;;0.00;0.00;;;16.40;99.90;;;;;;5034706;28;20496;-74
2021/10/03 03:56:14;;;;;;;0.00;0.00;;;16.50;99.90;;;;;;5035705;28;20041;-74
2021/10/03 03:58:39;;;;;;;0.00;0.00;;;16.50;99.90;;;;;;5035279;28;20044;-74
2021/10/03 04:01:05;;;;;;;0.25;0.25;;;16.50;99.90;;;;;;5035901;28;20099;-74
2021/10/03 04:03:31;;;;;;;0.03;0.03;;;16.60;99.90;;;;;;5035929;28;20028;-76
2021/10/03 04:05:57;;;;;;;0.00;0.00;;;16.60;99.90;;;;;;5036389;28;20030;-75
2021/10/03 04:08:23;;;;;;;0.03;0.03;;;16.60;99.90;;;;;;5037608;28;20450;-74
2021/10/03 04:10:50;;;;;;;0.10;0.10;;;16.60;99.90;;;;;;5037236;28;20075;-74
2021/10/03 04:13:17;;;;;;;0.80;0.63;;;16.60;99.90;;;;;;5038568;28;20496;-74
2021/10/03 04:15:43;;;;;;;0.00;0.00;;;16.60;99.90;;;;;;5039405;28;20018;-74
2021/10/03 04:18:08;;;;;;;1.27;0.38;;;16.60;99.90;;;;;;5040255;28;20030;-75
2021/10/03 04:20:34;;;;;;;0.88;0.77;;;16.60;99.90;;;;;;5036188;28;20018;-75
2021/10/03 04:22:59;;;;;;;0.00;0.00;;;16.60;99.90;;;;;;5034513;28;20159;-74
2021/10/03 04:25:25;;;;;;;1.60;1.50;;;16.60;99.90;;;;;;5034938;28;20072;-74
2021/10/03 04:27:51;;;;;;;0.00;0.00;;;16.60;99.90;;;;;;5037285;28;20053;-75
2021/10/03 04:30:16;;;;;;;2.08;1.65;;;16.60;99.90;;;;;;5039095;28;20079;-74
2021/10/03 04:32:42;;;;;;;0.00;0.00;;;16.70;99.90;;;;;;5040673;28;20532;-73
2021/10/03 04:35:08;;;;;;;4.70;2.00;;;16.70;99.90;;;;;;5038272;28;20536;-75
2021/10/03 04:37:34;;;;;;;0.38;0.38;;;16.80;99.90;;;;;;5037140;28;20120;-75
2021/10/03 04:39:59;;;;;;;0.00;0.00;;;16.80;99.90;;;;;;5046147;28;20396;-75
2021/10/03 04:42:25;;;;;;;5.25;2.30;;;16.70;99.90;;;;;;5054962;28;20025;-75
2021/10/03 04:44:51;;;;;;;1.33;0.65;;;16.80;99.90;;;;;;5054847;28;20025;-76
2021/10/03 04:47:16;;;;;;;0.98;0.15;;;16.80;99.90;;;;;;5054753;28;20037;-74
2021/10/03 04:49:42;;;;;;;0.10;0.10;;;16.80;99.90;;;;;;5055140;28;20092;-75
2021/10/03 04:52:08;;;;;;;0.00;0.00;;;16.80;99.90;;;;;;5054542;28;20036;-75
2021/10/03 04:54:33;;;;;;;0.00;0.00;;;16.70;99.90;;;;;;5054487;28;20079;-75
2021/10/03 04:56:59;;;;;;;0.03;0.03;;;16.70;99.90;;;;;;5054588;28;20536;-75
2021/10/03 04:59:25;;;;;;;0.40;0.40;;;16.60;99.90;;;;;;5054291;28;20066;-75
2021/10/03 05:01:50;;;;;;;0.32;0.30;;;16.60;99.90;;;;;;5054597;28;20078;-74
2021/10/03 05:04:16;;;;;;;1.33;0.85;;;16.50;99.90;;;;;;5053621;28;20100;-74
2021/10/03 05:06:41;;;;;;;0.00;0.00;;;16.50;99.90;;;;;;5054626;28;20404;-74
2021/10/03 05:09:07;;;;;;;0.00;0.00;;;16.60;99.90;;;;;;5053119;28;20036;-74
2021/10/03 05:11:33;;;;;;;4.85;1.58;;;16.60;99.90;;;;;;5054296;28;20120;-75
2021/10/03 05:14:05;;;;;;;0.00;0.00;;;16.60;99.90;;;;;;5054526;28;20017;-74
2021/10/03 05:16:31;;;;;;;1.50;1.40;;;16.60;99.90;;;;;;5054401;28;20524;-75
2021/10/03 05:18:58;;;;;;;0.40;0.15;;;16.60;99.90;;;;;;5054483;28;20302;-74
2021/10/03 05:21:23;;;;;;;0.00;0.00;;;16.50;99.90;;;;;;5054166;28;20048;-74
2021/10/03 05:23:49;;;;;;;0.00;0.00;;;16.50;99.90;;;;;;5053433;28;20459;-80
2021/10/03 05:26:15;;;;;;;0.98;0.30;;;16.40;99.90;;;;;;5052744;28;20036;-81
2021/10/03 05:28:41;;;;;;;0.45;0.45;;;15.70;99.90;;;;;;5052652;28;20055;-75
2021/10/03 05:31:07;;;;;;;0.00;0.00;;;15.60;99.90;;;;;;5053967;28;20049;-75
2021/10/03 05:33:33;;;;;;;0.00;0.00;;;15.50;99.90;;;;;;5053967;28;20503;-75
2021/10/03 05:35:59;;;;;;;0.00;0.00;;;15.40;99.90;;;;;;5054116;28;20032;-74
2021/10/03 05:38:25;;;;;;;0.40;0.40;;;15.10;99.90;;;;;;5052737;28;20040;-75
2021/10/03 05:40:51;;;;;;;0.00;0.00;;;15.00;99.90;;;;;;5053563;28;20108;-74
2021/10/03 05:43:16;;;;;;;0.00;0.00;;;14.90;99.90;;;;;;5052936;28;20563;-74
2021/10/03 05:45:42;;;;;;;0.00;0.00;;;14.80;99.90;;;;;;5053703;28;20056;-75
2021/10/03 05:48:08;;;;;;;0.00;0.00;;;14.70;99.90;;;;;;5053553;28;20028;-75
2021/10/03 05:50:33;;;;;;;9.52;1.75;;;14.60;99.90;;;;;;5052315;28;20021;-74
2021/10/03 05:52:59;;;;;;;0.00;0.00;;;14.50;99.90;;;;;;5053515;28;20029;-74
2021/10/03 05:55:25;;;;;;;0.00;0.00;;;14.40;99.90;;;;;;5052217;28;20024;-75
2021/10/03 05:57:51;;;;;;;0.00;0.00;;;14.40;99.90;;;;;;5052007;28;20432;-75
2021/10/03 06:00:16;;;;;;;0.00;0.00;;;14.40;99.90;;;;;;5053486;28;20029;-74
2021/10/03 06:02:42;;;;;;;0.30;0.30;;;14.40;99.90;;;;;;5052291;28;20032;-76
2021/10/03 06:05:08;;;;;;;0.00;0.00;;;14.40;99.90;;;;;;5053342;28;20029;-75
2021/10/03 06:07:34;;;;;;;0.00;0.00;;;14.40;99.90;;;;;;5053455;28;20039;-75
2021/10/03 06:09:59;;;;;;;0.32;0.32;;;14.40;99.90;;;;;;5053009;28;20044;-75
2021/10/03 06:12:26;;;;;;;0.00;0.00;;;14.40;99.90;;;;;;5053170;28;20021;-75
2021/10/03 06:14:51;;;;;;;0.32;0.30;;;14.40;99.90;;;;;;5053178;28;20021;-75
2021/10/03 06:17:17;;;;;;;0.00;0.00;;;14.40;99.90;;;;;;5052835;28;20400;-75
2021/10/03 06:19:43;;;;;;;0.00;0.00;;;14.40;99.90;;;;;;5053346;28;20029;-75
2021/10/03 06:22:09;;;;;;;0.00;0.00;;;14.30;99.90;;;;;;5052738;28;20124;-75
2021/10/03 06:24:34;;;;;;;1.75;0.90;;;14.20;99.90;;;;;;5052736;28;20060;-75
2021/10/03 06:27:00;;;;;;;0.00;0.00;;;14.20;99.90;;;;;;5053043;28;20029;-75
2021/10/03 06:29:26;;;;;;;1.65;1.35;;;14.20;99.90;;;;;;5053008;28;20029;-75
2021/10/03 06:31:51;;;;;;;0.32;0.32;;;14.20;99.90;;;;;;5053065;28;20021;-75
2021/10/03 06:34:17;;;;;;;0.00;0.00;;;14.20;99.90;;;;;;5052690;28;20021;-75
2021/10/03 06:36:43;;;;;;;0.00;0.00;;;14.20;99.90;;;;;;5052671;28;20029;-75
2021/10/03 06:39:08;;;;;;;0.00;0.00;;;14.20;99.90;;;;;;5052435;28;20407;-75
2021/10/03 06:41:34;;;;;;;4.18;0.43;;;14.10;99.90;;;;;;5052748;28;20056;-75
2021/10/03 06:44:00;;;;;;;0.00;0.00;;;14.10;99.90;;;;;;5052740;28;20485;-75
2021/10/03 06:46:25;;;;;;;0.00;0.00;;;14.10;99.90;;;;;;5052798;28;20028;-75
2021/10/03 06:48:51;;;;;;;0.00;0.00;;;13.90;99.90;;;;;;5052684;28;20021;-75
2021/10/03 06:51:17;;;;;;;0.00;0.00;;;13.80;99.90;;;;;;5052608;28;20021;-75
2021/10/03 06:53:42;;;;;;;0.00;0.00;;;13.70;99.90;;;;;;5052837;28;20017;-75
2021/10/03 06:56:08;;;;;;;0.00;0.00;;;13.60;99.90;;;;;;5052475;28;20083;-75
2021/10/03 06:58:35;;;;;;;0.00;0.00;;;13.60;99.90;;;;;;5052761;28;20025;-75
2021/10/03 07:01:01;;;;;;;0.00;0.00;;;13.60;99.90;;;;;;5052774;28;20039;-75
2021/10/03 07:03:27;;;;;;;0.00;0.00;;;13.50;99.90;;;;;;5052715;28;20025;-75
2021/10/03 07:05:52;;;;;;;0.00;0.00;;;13.60;99.90;;;;;;5052615;28;20025;-75
2021/10/03 07:08:18;;;;;;;0.00;0.00;;;13.60;99.90;;;;;;5052498;28;20040;-75
2021/10/03 07:10:43;;;;;;;0.00;0.00;;;13.60;99.90;;;;;;5052231;28;20033;-75
2021/10/03 07:13:11;;;;;;;0.00;0.00;;;13.60;99.90;;;;;;5052502;28;20082;-75
2021/10/03 07:15:37;;;;;;;0.00;0.00;;;13.60;99.90;;;;;;5052330;28;20028;-74
2021/10/03 07:18:03;;;;;;;0.00;0.00;;;13.60;99.90;;;;;;5052362;28;20025;-75
2021/10/03 07:20:29;;;;;;;0.00;0.00;;;13.60;99.90;;;;;;5052462;28;20025;-75
2021/10/03 07:22:54;;;;;;;0.00;0.00;;;13.60;99.90;;;;;;5052365;28;20460;-75
2021/10/03 07:25:20;;;;;;;0.00;0.00;;;13.60;99.90;;;;;;5051941;28;20025;-75
2021/10/03 07:27:46;;;;;;;0.70;0.40;;;13.60;99.90;;;;;;5055273;28;20036;-75
2021/10/03 07:30:12;;;;;;;0.00;0.00;;;13.60;99.90;;;;;;5056353;28;20075;-75
2021/10/03 07:32:39;;;;;;;0.00;0.00;;;13.60;99.90;;;;;;5056473;28;20492;-75
2021/10/03 07:35:05;;;;;;;0.00;0.00;;;13.50;99.90;;;;;;5056148;28;20066;-75
2021/10/03 07:37:31;;;;;;;0.00;0.00;;;13.60;99.90;;;;;;5056333;28;20487;-75
2021/10/03 07:39:57;;;;;;;0.00;0.00;;;13.60;99.90;;;;;;5056159;28;20155;-75
2021/10/03 07:42:23;;;;;;;0.00;0.00;;;13.70;99.90;;;;;;5056143;28;20488;-75
2021/10/03 07:44:49;;;;;;;0.00;0.00;;;13.70;99.90;;;;;;5056138;28;20060;-75
2021/10/03 07:47:15;;;;;;;0.00;0.00;;;13.80;99.90;;;;;;5054535;28;20446;-75
2021/10/03 07:49:41;;;;;;;0.00;0.00;;;13.80;99.90;;;;;;5056092;28;20021;-75
2021/10/03 07:52:07;;;;;;;0.10;0.10;;;13.90;99.90;;;;;;5056006;28;20025;-75
2021/10/03 07:54:33;;;;;;;0.00;0.00;;;13.90;99.90;;;;;;5055976;28;20469;-75
2021/10/03 07:56:59;;;;;;;0.00;0.00;;;14.00;99.90;;;;;;5055891;28;20032;-75
2021/10/03 07:59:24;;;;;;;0.00;0.00;;;14.10;99.90;;;;;;5055657;28;20029;-75
2021/10/03 08:01:50;;;;;;;0.00;0.00;;;14.10;99.90;;;;;;5055778;28;20517;-75
2021/10/03 08:04:15;;;;;;;11.60;1.02;;;14.20;99.90;;;;;;5055711;28;20086;-75
2021/10/03 08:06:41;;;;;;;0.00;0.00;;;14.20;99.90;;;;;;5055734;28;20031;-75
2021/10/03 08:09:07;;;;;;;0.00;0.00;;;14.30;99.90;;;;;;5055517;28;20021;-75
2021/10/03 08:11:33;;;;;;;0.00;0.00;;;14.30;99.90;;;;;;5055512;28;20488;-75
2021/10/03 08:13:58;;;;;;;0.65;0.65;;;14.40;99.90;;;;;;5055400;28;20021;-75
2021/10/03 08:16:24;;;;;;;0.52;0.47;;;14.40;99.90;;;;;;5054974;28;20499;-75
2021/10/03 08:18:50;;;;;;;0.00;0.00;;;14.40;99.90;;;;;;5055516;28;20075;-75
2021/10/03 08:21:17;;;;;;;0.00;0.00;;;14.30;99.90;;;;;;5055168;28;20029;-75
2021/10/03 08:23:43;;;;;;;0.00;0.00;;;14.20;99.90;;;;;;5053875;28;20075;-75
2021/10/03 08:26:10;;;;;;;0.00;0.00;;;14.00;99.90;;;;;;5054378;28;20404;-75
2021/10/03 08:28:36;;;;;;;0.00;0.00;;;13.90;99.90;;;;;;5055269;28;20028;-75
2021/10/03 08:31:02;;;;;;;0.32;0.30;;;13.70;99.90;;;;;;5055090;28;20021;-75
2021/10/03 08:33:28;;;;;;;0.00;0.00;;;13.60;99.90;;;;;;5055258;28;20514;-75
2021/10/03 08:35:53;;;;;;;0.00;0.00;;;13.60;99.90;;;;;;5055174;28;20123;-75
2021/10/03 08:38:19;;;;;;;0.00;0.00;;;13.60;99.90;;;;;;5053629;28;20036;-75
2021/10/03 08:40:45;;;;;;;0.17;0.10;;;13.60;99.90;;;;;;5054076;28;20142;-75
2021/10/03 08:43:10;;;;;;;0.10;0.10;;;13.70;99.90;;;;;;5054272;28;20025;-75
2021/10/03 08:45:42;;;;;;;0.00;0.00;;;13.80;99.90;;;;;;5054900;28;20067;-75
2021/10/03 08:48:12;;;;;;;0.08;0.08;;;13.90;99.90;;;;;;5054826;28;20465;-75
2021/10/03 08:50:39;;;;;;;0.10;0.10;;;14.10;99.90;;;;;;5054761;28;20029;-75
2021/10/03 08:53:05;;;;;;;1.05;0.22;;;14.10;99.90;;;;;;5054915;28;20481;-75
2021/10/03 08:55:31;;;;;;;0.00;0.00;;;14.30;99.90;;;;;;5053468;28;20459;-75
2021/10/03 08:57:56;;;;;;;0.77;0.73;;;14.40;99.90;;;;;;5054700;28;20108;-75
2021/10/03 09:00:24;;;;;;;0.00;0.00;;;14.40;99.90;;;;;;5054318;28;20032;-75
2021/10/03 09:03:00;;;;;;;0.00;0.00;;;14.40;99.90;;;;;;5054790;28;20033;-75
2021/10/03 09:05:29;;;;;;;0.00;0.00;;;14.40;99.90;;;;;;5054959;28;20071;-75
2021/10/03 09:08:10;;;;;;;0.00;0.00;;;14.20;99.90;;;;;;5054610;28;20024;-75
2021/10/03 09:10:49;;;;;;;0.00;0.00;;;14.10;99.90;;;;;;5054412;28;20095;-75
2021/10/03 09:13:16;;;;;;;0.00;0.00;;;14.20;99.90;;;;;;5054466;28;20058;-75
2021/10/03 09:15:42;;;;;;;0.00;0.00;;;14.50;99.90;;;;;;5054267;28;20020;-75
2021/10/03 09:18:08;;;;;;;0.00;0.00;;;14.60;99.90;;;;;;5054403;28;20373;-75
2021/10/03 09:20:34;;;;;;;0.00;0.00;;;14.90;99.90;;;;;;5054088;28;20048;-75
2021/10/03 09:23:17;;;;;;;0.00;0.00;;;15.20;99.90;;;;;;5054200;28;20102;-75
2021/10/03 09:25:49;;;;;;;0.00;0.00;;;15.40;99.90;;;;;;5053717;28;20033;-75
2021/10/03 09:28:25;;;;;;;0.00;0.00;;;15.60;99.90;;;;;;5054086;28;20385;-75
2021/10/03 09:31:05;;;;;;;0.00;0.00;;;15.50;99.90;;;;;;5053932;28;20021;-75
2021/10/03 09:33:42;;;;;;;0.00;0.00;;;15.50;99.90;;;;;;5054205;28;20021;-75
2021/10/03 09:36:09;;;;;;;0.00;0.00;;;15.60;99.90;;;;;;5054335;28;20028;-75
2021/10/03 09:39:09;;;;;;;0.00;0.00;;;15.60;99.90;;;;;;5054125;28;20514;-75
2021/10/03 09:41:38;;;;;;;0.00;0.00;;;15.60;99.90;;;;;;5054220;28;20013;-75
2021/10/03 09:44:10;;;;;;;0.00;0.00;;;15.70;99.90;;;;;;5053726;28;20075;-75
2021/10/03 09:46:43;;;;;;;0.70;0.10;;;15.80;99.90;;;;;;5053781;28;20021;-75
2021/10/03 09:49:12;;;;;;;1.35;0.75;;;15.90;99.90;;;;;;5053190;28;20096;-76
2021/10/03 09:51:40;;;;;;;0.03;0.03;;;15.80;99.90;;;;;;5053770;28;20028;-76
2021/10/03 09:54:07;;;;;;;0.00;0.00;;;15.90;99.90;;;;;;5053724;28;20095;-76
2021/10/03 09:56:33;;;;;;;0.10;0.10;;;16.00;99.90;;;;;;5053744;28;20024;-76
2021/10/03 09:59:00;;;;;;;0.00;0.00;;;15.90;99.90;;;;;;5053474;28;20032;-75
2021/10/03 10:01:30;;;;;;;0.00;0.00;;;16.00;99.90;;;;;;5053414;28;20176;-75
2021/10/03 10:03:56;;;;;;;0.00;0.00;;;16.00;99.90;;;;;;5053599;28;20488;-75
2021/10/03 10:06:22;;;;;;;0.22;0.22;;;16.10;99.90;;;;;;5053553;28;20025;-75
2021/10/03 10:08:53;;;;;;;0.10;0.10;;;16.00;99.90;;;;;;5057402;28;20032;-75
2021/10/03 10:11:32;;;;;;;0.00;0.00;;;16.00;99.90;;;;;;5056655;28;20373;-75
2021/10/03 10:13:59;;;;;;;0.60;0.60;;;15.70;99.90;;;;;;5055682;28;20020;-75
2021/10/03 10:16:30;;;;;;;0.30;0.30;;;15.50;99.90;;;;;;5052636;28;20057;-75
2021/10/03 10:19:33;;;;;;;0.00;0.00;;;15.40;99.90;;;;;;5053245;28;20052;-75
2021/10/03 10:22:19;;;;;;;0.00;0.00;;;15.30;99.90;;;;;;5053102;28;20070;-75
2021/10/03 10:24:57;;;;;;;0.00;0.00;;;15.40;99.90;;;;;;5052582;28;20424;-75
2021/10/03 10:27:29;;;;;;;0.00;0.00;;;15.50;99.90;;;;;;5052653;28;20017;-76
2021/10/03 10:29:58;;;;;;;0.00;0.00;;;15.60;99.90;;;;;;5052931;28;20523;-76
2021/10/03 10:32:45;;;;;;;0.00;0.00;;;15.60;99.90;;;;;;5052921;28;20025;-75
2021/10/03 10:35:10;;;;;;;0.10;0.10;;;15.70;99.90;;;;;;5052531;28;20025;-75
2021/10/03 10:37:51;;;;;;;0.00;0.00;;;15.60;99.90;;;;;;5052859;28;20451;-75
2021/10/03 10:40:23;;;;;;;1.95;1.00;;;15.60;99.90;;;;;;5052615;28;20029;-75
2021/10/03 10:42:50;;;;;;;0.08;0.00;;;15.90;99.90;;;;;;5053095;28;20027;-75
2021/10/03 10:45:28;;;;;;;0.00;0.00;;;16.20;99.90;;;;;;5052707;28;20033;-75
2021/10/03 10:48:08;;;;;;;0.15;0.15;;;16.40;99.90;;;;;;5052542;28;20029;-75
2021/10/03 10:50:40;;;;;;;0.00;0.00;;;16.60;99.90;;;;;;5052633;28;20029;-75
2021/10/03 10:53:28;;;;;;;0.20;0.20;;;16.70;99.90;;;;;;5052617;28;20488;-75
2021/10/03 10:56:07;;;;;;;0.00;0.00;;;16.70;99.90;;;;;;5052388;28;20403;-75
2021/10/03 10:58:35;;;;;;;0.00;0.00;;;16.70;99.90;;;;;;5052038;28;20020;-75
2021/10/03 11:01:12;;;;;;;0.75;0.75;;;16.90;99.90;;;;;;5051441;28;20082;-75
2021/10/03 11:03:55;;;;;;;8.40;1.65;;;16.90;99.90;;;;;;5052391;28;20152;-75
2021/10/03 11:06:20;;;;;;;0.00;0.00;;;17.00;99.90;;;;;;5052477;28;20032;-75
2021/10/03 11:08:58;;;;;;;0.05;0.05;;;16.90;99.90;;;;;;5052554;28;20251;-75
2021/10/03 11:11:35;;;;;;;0.05;0.05;;;17.00;99.90;;;;;;5051909;28;20100;-75
2021/10/03 11:14:04;;;;;;;0.00;0.00;;;17.00;99.90;;;;;;5051923;28;20021;-76
2021/10/03 11:16:33;;;;;;;0.00;0.00;;;17.00;99.90;;;;;;5051753;28;20134;-75
2021/10/03 11:19:13;;;;;;;0.00;0.00;;;16.90;99.90;;;;;;5052514;28;20150;-75
2021/10/03 11:21:45;;;;;;;0.00;0.00;;;17.20;99.90;;;;;;5052522;28;20514;-75
2021/10/03 11:24:17;;;;;;;0.00;0.00;;;17.40;99.90;;;;;;5052181;28;20053;-75
2021/10/03 11:26:46;;;;;;;0.00;0.00;;;17.40;99.90;;;;;;5051073;28;20086;-75
2021/10/03 11:29:12;;;;;;;0.08;0.08;;;17.60;99.90;;;;;;5052345;28;20025;-75
2021/10/03 11:31:45;;;;;;;0.28;0.15;;;17.70;99.90;;;;;;5052395;28;20028;-75
2021/10/03 11:34:28;;;;;;;0.08;0.08;;;17.80;99.90;;;;;;5052247;28;20060;-75
2021/10/03 11:36:55;;;;;;;0.38;0.22;;;17.50;99.90;;;;;;5052345;28;20022;-75
2021/10/03 11:39:41;;;;;;;0.00;0.00;;;17.30;99.90;;;;;;5050784;28;20075;-75
2021/10/03 11:42:11;;;;;;;0.00;0.00;;;17.30;99.90;;;;;;5052127;28;20033;-75
2021/10/03 11:44:41;;;;;;;0.00;0.00;;;17.50;99.90;;;;;;5052296;28;20146;-75
2021/10/03 11:47:17;;;;;;;0.63;0.63;;;17.60;99.90;;;;;;5052109;28;20032;-75
2021/10/03 11:49:46;;;;;;;1.55;1.45;;;17.70;99.90;;;;;;5052157;28;20028;-75
2021/10/03 11:52:15;;;;;;;0.00;0.00;;;17.80;99.90;;;;;;5051815;28;20480;-76
2021/10/03 11:54:48;;;;;;;7.45;0.10;;;18.00;99.90;;;;;;5052214;28;20025;-76
2021/10/03 11:57:18;;;;;;;0.03;0.03;;;18.10;99.90;;;;;;5052162;28;20047;-75
2021/10/03 11:59:45;;;;;;;0.00;0.00;;;17.90;99.90;;;;;;5050788;28;20037;-75
2021/10/03 12:02:17;;;;;;;0.00;0.00;;;18.00;99.90;;;;;;5051992;28;20504;-75
2021/10/03 12:04:57;;;;;;;0.00;0.00;;;17.80;99.90;;;;;;5050634;28;20056;-75
2021/10/03 12:07:23;;;;;;;0.00;0.00;;;17.20;99.90;;;;;;5051850;28;20029;-75
2021/10/03 12:10:07;;;;;;;0.00;0.00;;;17.30;99.90;;;;;;5050682;28;20035;-75
2021/10/03 12:12:54;;;;;;;0.00;0.00;;;17.70;99.90;;;;;;5053123;28;20047;-75
2021/10/03 12:15:41;;;;;;;0.10;0.10;;;17.80;99.90;;;;;;5055389;28;20029;-75
2021/10/03 12:18:31;;;;;;;0.00;0.00;;;18.10;99.90;;;;;;5054866;28;20105;-75
2021/10/03 12:21:09;;;;;;;0.00;0.00;;;18.10;99.90;;;;;;5055102;28;20064;-74
2021/10/03 12:23:47;;;;;;;0.00;0.00;;;18.10;99.90;;;;;;5053969;28;20049;-75
2021/10/03 12:26:17;;;;;;;0.00;0.00;;;18.20;99.90;;;;;;5052604;28;20037;-75
2021/10/03 12:29:08;;;;;;;0.15;0.15;;;18.30;99.90;;;;;;5055212;28;20025;-75
2021/10/03 12:31:52;;;;;;;0.00;0.00;;;18.40;99.90;;;;;;5055347;28;20032;-75
2021/10/03 12:34:23;;;;;;;0.00;0.00;;;18.10;99.90;;;;;;5054990;28;20025;-75
2021/10/03 12:36:49;;;;;;;2.15;0.05;;;17.90;99.90;;;;;;5055216;28;20036;-75
2021/10/03 12:39:19;;;;;;;0.00;0.00;;;17.70;99.90;;;;;;5055024;28;20025;-75
2021/10/03 12:41:45;;;;;;;0.00;0.00;;;17.90;99.90;;;;;;5054887;28;20087;-75
2021/10/03 12:44:10;;;;;;;0.00;0.00;;;18.20;99.90;;;;;;5054909;28;20044;-75
2021/10/03 12:46:36;;;;;;;0.00;0.00;;;18.10;99.90;;;;;;5054891;28;20483;-75
2021/10/03 12:49:03;;;;;;;0.57;0.35;;;17.80;99.90;;;;;;5054796;28;20074;-73
2021/10/03 12:51:29;;;;;;;0.00;0.00;;;17.70;99.90;;;;;;5054758;28;20032;-75